Shaw Air Force Base
KSSC : now visible

Airfield :











YOU CAN JOIN US ON...

 
LOGIN :

Register | Disclaimer

   EN    FR    IT 

 









Legend :    VFR   Marginal VFR   IFR   Intensive IFR   Very Intensive IFR
Visi :
Ceiling :
>= 8 km
>= 3000ft
5 to 8 km
1000 to 3000 ft
1500m to 5 km
500 to 1000 ft
800 to 1500m
200 to 500 ft
< 800m
< 200 ft
Symbols :   Thunderstorms  Fog  Heavy snow  Heavy precipitations  Wind > 20 kt







- Airport Elevation : 241 ft


KSSC - Shaw Air Force Base

CURRENT METAR :
  • 162156Z AUTO 03009KT 10SM CLR 33/15 A2994 RMK AO2 SLP138 T03310146 $

EXPIRED METARs :
  • 162056Z AUTO 05012G18KT 10SM CLR 34/15 A2994 RMK AO2 SLP138 T03390149 57017 $
  • 162016Z AUTO 03012KT 10SM CLR 34/15 A2994 RMK AO2 WSHFT 12 SLP138 $
  • 161956Z AUTO 05013KT 10SM CLR 34/14 A2995 RMK AO2 SLP141 T03430142 $

TAF TAF KSSC
Valid from the 16 at 15:00 until the 17 at 21:00 UTC


161500Z 1615/1721 04010G17KT 9999 FEW045 QNH2994INS
BECMG 1622/1623 04009KT 9999 SKC QNH2994INS
BECMG 1717/1718 05009KT 9999 BKN060 QNH2992INS TX33/1620Z TN21/1711Z
No reported NOTAMs for that airfield.



MET'MAP, your aeronautical weather chart ! - Copyright ORBIFLY December 2007 - Disclaimer

ORBIFLY MET'MAP TEAM :

Programming & Development : Alexandra Zaïnal
Concept & Development : Baudouin d'Aumeries
Co-Development & Prog : Marc-Olivier Méhu
Technical & hardware support : Manuel Goepfert

Contact : metmap@orbifly.com




SOURCES & CREDITS :

   NOAA       Earth
Advisory